createdAt,value
2018-08-19T00:00:04.007Z,19.8
2018-08-19T00:01:04.149Z,19.8
2018-08-19T00:02:10.999Z,19.8
2018-08-19T00:03:10.928Z,19.8
2018-08-19T00:04:13.567Z,19.7
2018-08-19T00:05:13.531Z,19.6
2018-08-19T00:06:14.491Z,19.5
2018-08-19T00:07:14.424Z,19.6
2018-08-19T00:08:14.579Z,19.5
2018-08-19T00:09:14.485Z,19.4
2018-08-19T00:10:17.204Z,19.4
2018-08-19T00:11:17.774Z,19.4
2018-08-19T00:12:18.135Z,19.4
2018-08-19T00:13:18.267Z,19.3
2018-08-19T00:14:18.180Z,19.4
2018-08-19T00:15:18.305Z,19.3
2018-08-19T00:16:18.227Z,19.3
2018-08-19T00:17:20.154Z,19.2
2018-08-19T00:18:20.061Z,19.2
2018-08-19T00:19:22.800Z,19.2
2018-08-19T00:20:22.698Z,19.2
2018-08-19T00:21:22.840Z,19.1
2018-08-19T00:22:23.211Z,19.2
2018-08-19T00:23:23.371Z,19.1
2018-08-19T00:24:24.510Z,19.1
2018-08-19T00:25:24.420Z,19.1
2018-08-19T00:26:24.341Z,19.1
2018-08-19T00:27:26.915Z,19
2018-08-19T00:28:27.082Z,19
2018-08-19T00:29:27.016Z,19.1
2018-08-19T00:30:31.478Z,19
2018-08-19T00:31:31.382Z,18.9
2018-08-19T00:32:31.993Z,18.9
2018-08-19T00:33:31.927Z,18.9
2018-08-19T00:34:31.833Z,18.9
2018-08-19T00:35:32.761Z,18.9
2018-08-19T00:36:32.688Z,18.7
2018-08-19T00:37:32.617Z,18.7
2018-08-19T00:38:33.543Z,18.7
2018-08-19T00:39:33.901Z,18.8
2018-08-19T00:40:33.824Z,18.8
2018-08-19T00:41:34.719Z,18.7
2018-08-19T00:42:35.106Z,18.7
2018-08-19T00:43:35.255Z,18.6
2018-08-19T00:44:38.319Z,18.5
2018-08-19T00:45:38.513Z,18.5
2018-08-19T00:46:38.414Z,18.5
2018-08-19T00:47:43.291Z,18.6
2018-08-19T00:48:43.216Z,18.5
2018-08-19T00:49:43.123Z,18.5
2018-08-19T00:50:44.077Z,18.5
2018-08-19T00:51:43.989Z,18.5
2018-08-19T00:52:47.916Z,18.5
2018-08-19T00:53:47.843Z,18.4
2018-08-19T00:54:59.593Z,18.4
2018-08-19T00:55:59.497Z,18.4
2018-08-19T00:56:59.461Z,18.4
2018-08-19T00:57:59.387Z,18.4
2018-08-19T00:59:02.318Z,18.4
2018-08-19T01:00:02.243Z,18.5
2018-08-19T01:01:05.887Z,18.5
2018-08-19T01:02:05.796Z,18.5
2018-08-19T01:03:11.993Z,18.6
2018-08-19T01:04:16.820Z,18.5
2018-08-19T01:05:19.302Z,18.6
2018-08-19T01:06:19.440Z,18.6
2018-08-19T01:07:22.155Z,18.6
2018-08-19T01:08:22.060Z,18.5
2018-08-19T01:09:25.759Z,18.5
2018-08-19T01:10:25.669Z,18.6
2018-08-19T01:11:26.070Z,18.6
2018-08-19T01:12:25.980Z,18.5
2018-08-19T01:13:30.486Z,18.5
2018-08-19T01:14:33.964Z,18.5
2018-08-19T01:15:33.889Z,18.5
2018-08-19T01:16:37.783Z,18.5
2018-08-19T01:17:37.745Z,18.6
2018-08-19T01:18:40.793Z,18.6
2018-08-19T01:19:40.701Z,18.7
2018-08-19T01:20:44.847Z,18.6
2018-08-19T01:21:44.761Z,18.6
2018-08-19T01:22:51.845Z,18.6
2018-08-19T01:23:52.465Z,18.5
2018-08-19T01:24:52.364Z,18.6
2018-08-19T01:25:55.971Z,18.5
2018-08-19T01:26:55.890Z,18.5
2018-08-19T01:28:05.649Z,18.6
2018-08-19T01:29:08.296Z,18.6
2018-08-19T01:30:08.408Z,18.6
2018-08-19T01:31:08.319Z,18.5
2018-08-19T01:32:11.930Z,18.5
2018-08-19T01:33:11.839Z,18.5
2018-08-19T01:34:12.458Z,18.5
2018-08-19T01:35:12.619Z,18.5
2018-08-19T01:36:12.549Z,18.6
2018-08-19T01:37:13.129Z,18.5
2018-08-19T01:38:14.053Z,18.4
2018-08-19T01:39:16.763Z,18.4
2018-08-19T01:40:16.669Z,18.5
2018-08-19T01:41:17.268Z,18.5
2018-08-19T01:42:17.184Z,18.5
2018-08-19T01:43:21.044Z,18.5
2018-08-19T01:44:31.396Z,18.5
2018-08-19T01:45:31.323Z,18.6
2018-08-19T01:46:35.423Z,18.6
2018-08-19T01:47:36.340Z,18.6
2018-08-19T01:48:39.023Z,18.6
2018-08-19T01:49:42.586Z,18.6
2018-08-19T01:50:45.489Z,18.4
2018-08-19T01:51:49.064Z,18.5
2018-08-19T01:52:48.977Z,18.5
2018-08-19T01:53:55.549Z,18.5
2018-08-19T01:54:56.663Z,18.5
2018-08-19T01:55:56.787Z,18.6
2018-08-19T01:56:56.701Z,18.5
2018-08-19T01:57:56.861Z,18.5
2018-08-19T01:58:56.783Z,18.5
2018-08-19T01:59:57.945Z,18.6
2018-08-19T02:00:57.859Z,18.6
2018-08-19T02:02:07.620Z,18.6
2018-08-19T02:03:07.527Z,18.6
2018-08-19T02:04:11.396Z,18.6
2018-08-19T02:05:11.770Z,18.6
2018-08-19T02:06:11.926Z,18.7
2018-08-19T02:07:11.848Z,18.7
2018-08-19T02:08:11.759Z,18.7
2018-08-19T02:09:12.342Z,18.6
2018-08-19T02:10:12.288Z,18.7
2018-08-19T02:11:12.194Z,18.8
2018-08-19T02:12:12.157Z,18.8
2018-08-19T02:13:13.071Z,18.8
2018-08-19T02:14:12.999Z,18.8
2018-08-19T02:15:17.308Z,18.8
2018-08-19T02:16:20.989Z,18.7
2018-08-19T02:17:20.896Z,18.6
2018-08-19T02:18:24.793Z,18.6
2018-08-19T02:19:27.263Z,18.6
2018-08-19T02:20:28.206Z,18.5
2018-08-19T02:21:28.427Z,18.5
2018-08-19T02:22:28.611Z,18.5
2018-08-19T02:23:28.541Z,18.4
2018-08-19T02:24:28.462Z,18.3
2018-08-19T02:25:28.878Z,18.2
2018-08-19T02:26:29.021Z,18.1
2018-08-19T02:27:38.139Z,18
2018-08-19T02:28:38.036Z,18
2018-08-19T02:29:37.966Z,18.1
2018-08-19T02:30:37.895Z,18.1
2018-08-19T02:31:41.685Z,18.1
2018-08-19T02:32:41.604Z,18.1
2018-08-19T02:33:42.193Z,18
2018-08-19T02:34:44.868Z,18.1
2018-08-19T02:35:45.232Z,18.1
2018-08-19T02:36:45.189Z,18.1
2018-08-19T02:37:45.104Z,18.1
2018-08-19T02:38:47.847Z,18.1
2018-08-19T02:39:48.417Z,18
2018-08-19T02:40:48.346Z,17.9
2018-08-19T02:41:48.504Z,17.9
2018-08-19T02:42:48.413Z,17.9
2018-08-19T02:43:51.904Z,18
2018-08-19T02:44:51.814Z,17.9
2018-08-19T02:45:55.882Z,17.9
2018-08-19T02:46:56.018Z,17.9
2018-08-19T02:47:55.918Z,17.9
2018-08-19T02:48:58.780Z,17.9
2018-08-19T02:49:58.687Z,17.9
2018-08-19T02:50:58.623Z,17.9
2018-08-19T02:52:02.517Z,17.9
2018-08-19T02:53:05.489Z,17.8
2018-08-19T02:54:09.403Z,17.8
2018-08-19T02:55:09.309Z,17.8
2018-08-19T02:56:14.303Z,17.8
2018-08-19T02:57:34.954Z,17.8
2018-08-19T02:58:35.112Z,17.7
2018-08-19T02:59:35.036Z,17.7
2018-08-19T03:00:34.943Z,17.7
2018-08-19T03:01:36.869Z,17.8
2018-08-19T03:02:36.788Z,17.8
2018-08-19T03:03:42.639Z,17.8
2018-08-19T03:04:42.547Z,17.7
2018-08-19T03:05:42.897Z,17.7
2018-08-19T03:06:46.045Z,17.7
2018-08-19T03:07:45.957Z,17.7
2018-08-19T03:08:46.094Z,17.7
2018-08-19T03:09:46.004Z,17.7
2018-08-19T03:10:50.142Z,17.7
2018-08-19T03:11:50.059Z,17.7
2018-08-19T03:12:53.917Z,17.7
2018-08-19T03:13:53.844Z,17.6
2018-08-19T03:15:00.735Z,17.6
2018-08-19T03:16:00.820Z,17.6
2018-08-19T03:17:04.381Z,17.5
2018-08-19T03:18:04.745Z,17.5
2018-08-19T03:19:04.657Z,17.5
2018-08-19T03:20:05.253Z,17.5
2018-08-19T03:21:05.156Z,17.5
2018-08-19T03:22:08.780Z,17.5
2018-08-19T03:23:08.700Z,17.5
2018-08-19T03:24:11.275Z,17.5
2018-08-19T03:25:11.181Z,17.6
2018-08-19T03:26:13.878Z,17.6
2018-08-19T03:27:15.256Z,17.6
2018-08-19T03:28:15.165Z,17.5
2018-08-19T03:29:16.073Z,17.5
2018-08-19T03:30:15.975Z,17.5
2018-08-19T03:31:20.605Z,17.5
2018-08-19T03:32:20.642Z,17.4
2018-08-19T03:33:20.791Z,17.4
2018-08-19T03:34:20.740Z,17.4
2018-08-19T03:35:25.228Z,17.5
2018-08-19T03:36:25.133Z,17.5
2018-08-19T03:37:29.111Z,17.5
2018-08-19T03:38:29.050Z,17.5
2018-08-19T03:39:28.997Z,17.5
2018-08-19T03:40:28.944Z,17.6
2018-08-19T03:41:28.855Z,17.6
2018-08-19T03:42:29.026Z,17.5
2018-08-19T03:43:28.940Z,17.5
2018-08-19T03:44:29.881Z,17.5
2018-08-19T03:45:29.791Z,17.5
2018-08-19T03:46:35.168Z,17.5
2018-08-19T03:47:35.833Z,17.5
2018-08-19T03:48:56.651Z,17.5
2018-08-19T03:49:56.566Z,17.5
2018-08-19T03:51:00.500Z,17.5
2018-08-19T03:52:00.418Z,17.6
2018-08-19T03:53:03.256Z,17.5
2018-08-19T03:54:03.170Z,17.5
2018-08-19T03:55:03.551Z,17.6
2018-08-19T03:56:03.472Z,17.6
2018-08-19T03:57:06.558Z,17.6
2018-08-19T03:58:09.493Z,17.6
2018-08-19T03:59:12.940Z,17.6
2018-08-19T04:00:12.878Z,17.6
2018-08-19T04:01:12.832Z,17.6
2018-08-19T04:02:12.986Z,17.5
2018-08-19T04:03:13.553Z,17.5
2018-08-19T04:04:13.461Z,17.5
2018-08-19T04:05:14.361Z,17.5
2018-08-19T04:06:14.318Z,17.5
2018-08-19T04:07:14.233Z,17.5
2018-08-19T04:08:15.257Z,17.3
2018-08-19T04:09:17.954Z,17.4
2018-08-19T04:10:17.868Z,17.4
2018-08-19T04:11:18.018Z,17.3
2018-08-19T04:12:26.826Z,17.3
2018-08-19T04:13:26.811Z,17.3
2018-08-19T04:14:26.757Z,17.4
2018-08-19T04:15:26.905Z,17.3
2018-08-19T04:16:29.613Z,17.5
2018-08-19T04:17:29.557Z,17.4
2018-08-19T04:18:30.185Z,17.4
2018-08-19T04:19:30.152Z,17.5
2018-08-19T04:20:30.055Z,17.5
2018-08-19T04:21:33.944Z,17.5
2018-08-19T04:22:33.869Z,17.5
2018-08-19T04:23:42.771Z,17.4
2018-08-19T04:24:42.698Z,17.4
2018-08-19T04:25:42.595Z,17.4
2018-08-19T04:26:43.503Z,17.3
2018-08-19T04:27:43.432Z,17.3
2018-08-19T04:28:45.033Z,17.3
2018-08-19T04:29:48.642Z,17.3
2018-08-19T04:30:48.602Z,17.4
2018-08-19T04:31:51.272Z,17.4
2018-08-19T04:32:51.187Z,17.4
2018-08-19T04:33:55.100Z,17.4
2018-08-19T04:34:55.019Z,17.4
2018-08-19T04:35:54.937Z,17.4
2018-08-19T04:36:55.103Z,17.4
2018-08-19T04:37:55.029Z,17.5
2018-08-19T04:39:01.525Z,17.6
2018-08-19T04:40:01.442Z,17.5
2018-08-19T04:41:02.042Z,17.5
2018-08-19T04:42:01.974Z,17.5
2018-08-19T04:43:02.154Z,17.4
2018-08-19T04:44:02.092Z,17.4
2018-08-19T04:45:02.014Z,17.4
2018-08-19T04:46:02.162Z,17.4
2018-08-19T04:47:02.057Z,17.4
2018-08-19T04:48:03.008Z,17.3
2018-08-19T04:49:03.344Z,17.3
2018-08-19T04:50:05.902Z,17.3
2018-08-19T04:51:05.820Z,17.3
2018-08-19T04:52:05.947Z,17.3
2018-08-19T04:53:11.364Z,17.2
2018-08-19T04:54:11.273Z,17.2
2018-08-19T04:55:11.182Z,17.3
2018-08-19T04:56:11.142Z,17.2
2018-08-19T04:57:19.672Z,17.3
2018-08-19T04:58:19.595Z,17.2
2018-08-19T04:59:20.188Z,17.2
2018-08-19T05:00:20.165Z,17.3
2018-08-19T05:01:20.071Z,17.2
2018-08-19T05:02:23.810Z,17.2
2018-08-19T05:03:24.274Z,17.2
2018-08-19T05:04:24.206Z,17.2
2018-08-19T05:05:27.929Z,17.1
2018-08-19T05:06:28.849Z,17.1
2018-08-19T05:07:28.983Z,17.1
2018-08-19T05:08:29.800Z,17
2018-08-19T05:09:31.310Z,17
2018-08-19T05:10:34.794Z,17
2018-08-19T05:11:34.777Z,16.9
2018-08-19T05:12:34.911Z,16.9
2018-08-19T05:13:34.863Z,17
2018-08-19T05:14:34.801Z,17
2018-08-19T05:15:35.741Z,17.1
2018-08-19T05:16:36.228Z,17.2
2018-08-19T05:17:41.961Z,17.2
2018-08-19T05:18:41.880Z,17.2
2018-08-19T05:19:48.988Z,17.3
2018-08-19T05:20:48.898Z,17.4
2018-08-19T05:21:52.393Z,17.4
2018-08-19T05:22:52.328Z,17.4
2018-08-19T05:23:52.244Z,17.5
2018-08-19T05:24:52.156Z,17.6
2018-08-19T05:25:52.069Z,17.6
2018-08-19T05:26:51.992Z,17.6
2018-08-19T05:27:52.124Z,17.6
2018-08-19T05:28:52.089Z,17.6
2018-08-19T05:29:52.699Z,17.6
2018-08-19T05:30:52.852Z,17.7
2018-08-19T05:31:52.772Z,17.7
2018-08-19T05:32:53.400Z,17.7
2018-08-19T05:33:53.322Z,17.7
2018-08-19T05:34:53.222Z,17.8
2018-08-19T05:35:53.370Z,17.9
2018-08-19T05:36:53.283Z,18
2018-08-19T05:37:57.084Z,18.1
2018-08-19T05:38:57.295Z,18.1
2018-08-19T05:39:58.710Z,18.1
2018-08-19T05:40:58.634Z,18.2
2018-08-19T05:42:05.385Z,18.4
2018-08-19T05:43:05.300Z,18.4
2018-08-19T05:44:05.523Z,18.5
2018-08-19T05:45:05.447Z,18.6
2018-08-19T05:46:06.052Z,18.7
2018-08-19T05:47:06.139Z,18.8
2018-08-19T05:48:06.673Z,18.9
2018-08-19T05:49:06.636Z,19.1
2018-08-19T05:50:10.997Z,19.1
2018-08-19T05:51:10.908Z,19.2
2018-08-19T05:52:14.736Z,19.3
2018-08-19T05:53:14.705Z,19.4
2018-08-19T05:54:15.645Z,19.6
2018-08-19T05:55:18.325Z,19.7
2018-08-19T05:56:19.516Z,19.7
2018-08-19T05:57:19.455Z,19.8
2018-08-19T05:58:23.272Z,20
2018-08-19T05:59:23.402Z,20.1
2018-08-19T06:00:24.439Z,20.2
2018-08-19T06:01:24.609Z,20.3
2018-08-19T06:02:24.525Z,20.5
2018-08-19T06:03:24.444Z,20.5
2018-08-19T06:04:24.596Z,20.5
2018-08-19T06:05:27.088Z,20.6
2018-08-19T06:06:28.037Z,20.6
2018-08-19T06:07:28.361Z,20.8
2018-08-19T06:08:28.512Z,20.8
2018-08-19T06:09:37.374Z,20.9
2018-08-19T06:10:40.727Z,20.7
2018-08-19T06:11:40.665Z,20.9
2018-08-19T06:12:45.895Z,20.9
2018-08-19T06:13:45.827Z,21.1
2018-08-19T06:14:45.971Z,21.2
2018-08-19T06:15:46.057Z,21.3
2018-08-19T06:16:46.378Z,21.3
2018-08-19T06:17:46.296Z,21.4
2018-08-19T06:18:46.235Z,21.5
2018-08-19T06:19:46.139Z,21.6
2018-08-19T06:20:47.509Z,21.6
2018-08-19T06:21:47.492Z,21.6
2018-08-19T06:22:47.700Z,21.7
2018-08-19T06:23:47.903Z,21.7
2018-08-19T06:24:47.860Z,21.8
2018-08-19T06:25:50.560Z,21.9
2018-08-19T06:26:50.481Z,22.1
2018-08-19T06:27:51.592Z,22.1
2018-08-19T06:28:51.533Z,22.2
2018-08-19T06:29:55.319Z,22.2
2018-08-19T06:30:55.797Z,22.3
2018-08-19T06:31:55.817Z,22.4
2018-08-19T06:32:59.679Z,22.5
2018-08-19T06:33:59.625Z,22.5
2018-08-19T06:35:05.845Z,22.5
2018-08-19T06:36:06.322Z,22.3
2018-08-19T06:37:06.527Z,22.5
2018-08-19T06:38:06.515Z,22.6
2018-08-19T06:39:06.458Z,22.6
2018-08-19T06:40:06.686Z,22.8
2018-08-19T06:41:08.317Z,23
2018-08-19T06:42:08.230Z,23.1
2018-08-19T06:43:11.034Z,23.2
2018-08-19T06:44:11.415Z,23.3
2018-08-19T06:45:11.330Z,23.5
2018-08-19T06:46:11.317Z,23.6
2018-08-19T06:47:11.241Z,23.7
2018-08-19T06:48:11.193Z,23.8
2018-08-19T06:49:11.151Z,24
2018-08-19T06:50:11.302Z,24
2018-08-19T06:51:12.392Z,24.1
2018-08-19T06:52:12.941Z,24.2
2018-08-19T06:53:22.005Z,24.3
2018-08-19T06:54:25.715Z,24.5
2018-08-19T06:55:25.863Z,24.7
2018-08-19T06:56:28.735Z,24.7
2018-08-19T06:57:28.664Z,24.8
2018-08-19T06:58:31.338Z,24.9
2018-08-19T06:59:31.267Z,25.1
2018-08-19T07:00:32.195Z,25.2
2018-08-19T07:01:36.457Z,25.4
2018-08-19T07:02:36.385Z,25.4
2018-08-19T07:03:36.474Z,25.5
2018-08-19T07:04:36.924Z,25.4
2018-08-19T07:05:36.868Z,25.5
2018-08-19T07:06:37.040Z,25.6
2018-08-19T07:07:36.964Z,25.6
2018-08-19T07:08:36.912Z,25.7
2018-08-19T07:09:36.848Z,25.7
2018-08-19T07:10:40.395Z,25.6
2018-08-19T07:11:44.334Z,25.7
2018-08-19T07:12:44.616Z,25.7
2018-08-19T07:13:45.108Z,25.8
2018-08-19T07:14:45.494Z,25.9
2018-08-19T07:15:45.628Z,25.9
2018-08-19T07:16:45.602Z,26
2018-08-19T07:17:48.334Z,26.1
2018-08-19T07:18:49.058Z,26.1
2018-08-19T07:19:53.099Z,25.9
2018-08-19T07:20:53.023Z,25.9
2018-08-19T07:21:53.829Z,25.9
2018-08-19T07:22:53.726Z,25.8
2018-08-19T07:23:54.069Z,25.6
2018-08-19T07:24:54.876Z,25.8
2018-08-19T07:25:54.815Z,26
2018-08-19T07:26:54.720Z,26.2
2018-08-19T07:27:54.698Z,26.2
2018-08-19T07:28:54.654Z,26.3
2018-08-19T07:29:55.791Z,26.3
2018-08-19T07:30:55.753Z,26.3
2018-08-19T07:31:59.132Z,26.3
2018-08-19T07:33:00.059Z,26.3
2018-08-19T07:34:00.670Z,26.5
2018-08-19T07:35:00.589Z,26.5
2018-08-19T07:36:10.247Z,26.6
2018-08-19T07:37:13.765Z,26.5
2018-08-19T07:38:14.487Z,26.5
2018-08-19T07:39:17.245Z,26.6
2018-08-19T07:40:17.384Z,26.6
2018-08-19T07:41:18.307Z,26.6
2018-08-19T07:42:18.705Z,26.7
2018-08-19T07:43:18.633Z,26.6
2018-08-19T07:44:22.491Z,26.2
2018-08-19T07:45:25.393Z,25.9
2018-08-19T07:46:25.332Z,25.8
2018-08-19T07:47:29.152Z,25.7
2018-08-19T07:48:29.308Z,26
2018-08-19T07:49:29.462Z,26.1
2018-08-19T07:50:29.388Z,26.3
2018-08-19T07:51:29.414Z,26.6
2018-08-19T07:52:32.753Z,26.7
2018-08-19T07:53:33.663Z,26.8
2018-08-19T07:54:33.589Z,26.6
2018-08-19T07:55:33.542Z,26.8
2018-08-19T07:56:36.393Z,27
2018-08-19T07:57:39.248Z,27.2
2018-08-19T07:58:39.177Z,27.3
2018-08-19T07:59:39.187Z,27.3
2018-08-19T08:00:39.119Z,27.4
2018-08-19T08:01:42.225Z,27.4
2018-08-19T08:02:42.607Z,27.5
2018-08-19T08:03:42.754Z,27.5
2018-08-19T08:04:42.686Z,27.7
2018-08-19T08:05:44.617Z,27.8
2018-08-19T08:06:45.551Z,27.6
2018-08-19T08:07:45.741Z,27.6
2018-08-19T08:08:48.448Z,27.6
2018-08-19T08:09:48.410Z,27.6
2018-08-19T08:10:48.496Z,27.7
2018-08-19T08:11:48.776Z,27.7
2018-08-19T08:12:52.093Z,27.6
2018-08-19T08:13:55.645Z,27.3
2018-08-19T08:14:56.103Z,27.1
2018-08-19T08:15:57.072Z,27.1
2018-08-19T08:16:56.981Z,27.1
2018-08-19T08:17:56.915Z,27.1
2018-08-19T08:18:56.829Z,27
2018-08-19T08:19:57.769Z,26.9
2018-08-19T08:20:57.713Z,26.9
2018-08-19T08:21:57.643Z,26.9
2018-08-19T08:23:02.604Z,27.2
2018-08-19T08:24:02.560Z,27.1
2018-08-19T08:25:03.507Z,27.1
2018-08-19T08:26:13.353Z,27.3
2018-08-19T08:27:13.266Z,27.4
2018-08-19T08:28:13.417Z,27.2
2018-08-19T08:29:13.698Z,26.9
2018-08-19T08:30:16.997Z,26.9
2018-08-19T08:31:26.917Z,27.2
2018-08-19T08:32:26.846Z,27.3
2018-08-19T08:33:27.460Z,27.2
2018-08-19T08:34:27.911Z,27.5
2018-08-19T08:35:28.238Z,27.3
2018-08-19T08:36:29.372Z,27.3
2018-08-19T08:37:29.291Z,27.4
2018-08-19T08:38:29.213Z,27.4
2018-08-19T08:39:29.138Z,27.5
2018-08-19T08:40:29.192Z,27.6
2018-08-19T08:41:29.244Z,28
2018-08-19T08:42:29.143Z,27.6
2018-08-19T08:43:29.532Z,27.3
2018-08-19T08:44:30.124Z,27.2
2018-08-19T08:45:30.048Z,27.2
2018-08-19T08:46:29.968Z,27.1
2018-08-19T08:47:30.407Z,26.9
2018-08-19T08:48:30.747Z,26.8
2018-08-19T08:49:30.648Z,26.7
2018-08-19T08:50:30.632Z,26.7
2018-08-19T08:51:30.559Z,26.9
2018-08-19T08:52:30.465Z,27.2
2018-08-19T08:53:30.849Z,27.2
2018-08-19T08:54:30.800Z,27.2
2018-08-19T08:55:30.707Z,27.3
2018-08-19T08:56:30.862Z,27.5
2018-08-19T08:57:31.336Z,27.5
2018-08-19T08:58:35.056Z,27.6
2018-08-19T08:59:34.969Z,27.3
2018-08-19T09:00:34.885Z,26.9
2018-08-19T09:01:35.061Z,27
2018-08-19T09:02:34.974Z,27.4
2018-08-19T09:03:35.606Z,27.5
2018-08-19T09:04:35.520Z,27.5
2018-08-19T09:05:35.443Z,27.6
2018-08-19T09:06:35.612Z,27
2018-08-19T09:07:35.524Z,27
2018-08-19T09:08:35.436Z,27.3
2018-08-19T09:09:35.533Z,27.4
2018-08-19T09:10:36.442Z,27.6
2018-08-19T09:11:36.390Z,27.5
2018-08-19T09:12:36.324Z,27.7
2018-08-19T09:13:36.720Z,27.9
2018-08-19T09:14:36.672Z,28.1
2018-08-19T09:15:36.619Z,28
2018-08-19T09:16:37.001Z,27.8
2018-08-19T09:17:36.907Z,27.7
2018-08-19T09:18:37.838Z,27.7
2018-08-19T09:19:37.757Z,27.4
2018-08-19T09:20:37.681Z,27.5
2018-08-19T09:21:37.618Z,27.7
2018-08-19T09:22:37.564Z,27.9
2018-08-19T09:23:38.812Z,27.6
2018-08-19T09:24:38.735Z,27.4
2018-08-19T09:25:38.658Z,27.3
2018-08-19T09:26:38.582Z,27.3
2018-08-19T09:27:38.507Z,27.5
2018-08-19T09:28:38.442Z,27.7
2018-08-19T09:29:38.369Z,27.7
2018-08-19T09:30:38.536Z,27.7
2018-08-19T09:31:38.471Z,27.6
2018-08-19T09:32:38.402Z,27.7
2018-08-19T09:33:38.997Z,27.7
2018-08-19T09:34:38.921Z,27.8
2018-08-19T09:35:39.267Z,27.8
2018-08-19T09:36:39.420Z,27.8
2018-08-19T09:37:39.331Z,27.9
2018-08-19T09:38:42.000Z,28.1
2018-08-19T09:39:41.903Z,28.1
2018-08-19T09:40:44.843Z,28.2
2018-08-19T09:41:45.119Z,28.2
2018-08-19T09:42:45.027Z,28.3
2018-08-19T09:43:45.389Z,28.3
2018-08-19T09:44:46.542Z,28.2
2018-08-19T09:45:46.492Z,28
2018-08-19T09:46:46.641Z,28.1
2018-08-19T09:47:47.148Z,28.1
2018-08-19T09:48:47.601Z,28.2
2018-08-19T09:49:47.507Z,28
2018-08-19T09:50:47.419Z,28.2
2018-08-19T09:51:47.398Z,28.2
2018-08-19T09:52:47.323Z,28.3
2018-08-19T09:53:47.720Z,28.4
2018-08-19T09:54:47.624Z,28.4
2018-08-19T09:55:47.547Z,28.1
2018-08-19T09:56:48.484Z,28.1
2018-08-19T09:57:48.643Z,28.3
2018-08-19T09:58:48.553Z,28.4
2018-08-19T09:59:48.456Z,28.3
2018-08-19T10:00:48.381Z,27.8
2018-08-19T10:01:48.316Z,27.7
2018-08-19T10:02:48.910Z,27.8
2018-08-19T10:03:49.508Z,27.8
2018-08-19T10:04:52.336Z,27.9
2018-08-19T10:05:53.245Z,27.8
2018-08-19T10:06:53.189Z,27.7
2018-08-19T10:07:53.760Z,27.7
2018-08-19T10:08:54.562Z,27.2
2018-08-19T10:09:54.482Z,27.3
2018-08-19T10:10:54.397Z,27.2
2018-08-19T10:11:54.322Z,27.3
2018-08-19T10:12:54.229Z,27.4
2018-08-19T10:13:54.567Z,27.3
2018-08-19T10:14:54.472Z,27.3
2018-08-19T10:15:54.383Z,27.3
2018-08-19T10:16:54.312Z,27.1
2018-08-19T10:17:54.253Z,27.1
2018-08-19T10:18:54.199Z,27
2018-08-19T10:19:54.127Z,27.1
2018-08-19T10:20:54.051Z,26.9
2018-08-19T10:21:53.975Z,27
2018-08-19T10:22:53.882Z,27.3
2018-08-19T10:23:54.255Z,27.6
2018-08-19T10:24:54.165Z,27.4
2018-08-19T10:25:54.070Z,27.3
2018-08-19T10:26:53.988Z,27.1
2018-08-19T10:27:53.917Z,26.9
2018-08-19T10:28:53.872Z,26.9
2018-08-19T10:29:53.797Z,27.1
2018-08-19T10:30:56.556Z,27.1
2018-08-19T10:31:56.459Z,26.9
2018-08-19T10:32:56.397Z,26.8
2018-08-19T10:33:56.975Z,26.9
2018-08-19T10:34:56.910Z,26.9
2018-08-19T10:35:56.834Z,26.9
2018-08-19T10:36:56.743Z,26.6
2018-08-19T10:37:56.674Z,26.1
2018-08-19T10:38:56.599Z,26.1
2018-08-19T10:39:56.509Z,26.1
2018-08-19T10:40:56.445Z,26.3
2018-08-19T10:41:56.364Z,26.2
2018-08-19T10:42:56.275Z,25.9
2018-08-19T10:43:56.649Z,25.7
2018-08-19T10:44:56.555Z,25.9
2018-08-19T10:45:56.469Z,26
2018-08-19T10:46:56.402Z,25.9
2018-08-19T10:47:56.340Z,26.2
2018-08-19T10:48:56.280Z,26.2
2018-08-19T10:49:56.226Z,26.3
2018-08-19T10:50:56.149Z,26.5
2018-08-19T10:51:56.057Z,26.7
2018-08-19T10:52:55.969Z,26.7
2018-08-19T10:53:59.832Z,26.8
2018-08-19T10:54:59.739Z,27
2018-08-19T10:55:59.645Z,27
2018-08-19T10:56:59.560Z,27
2018-08-19T10:57:59.487Z,27.1
2018-08-19T10:58:59.434Z,27.2
2018-08-19T10:59:59.394Z,27
2018-08-19T11:00:59.344Z,26.7
2018-08-19T11:01:59.256Z,26.7
2018-08-19T11:02:59.184Z,26.8
2018-08-19T11:03:59.523Z,26.8
2018-08-19T11:04:59.453Z,26.8
2018-08-19T11:05:59.366Z,26.8
2018-08-19T11:07:00.282Z,26.9
2018-08-19T11:08:00.191Z,26.9
2018-08-19T11:09:00.088Z,27
2018-08-19T11:10:00.025Z,27.1
2018-08-19T11:10:59.961Z,27.2
2018-08-19T11:11:59.871Z,27.2
2018-08-19T11:12:59.788Z,27.1
2018-08-19T11:14:00.598Z,27.1
2018-08-19T11:15:00.517Z,27.2
2018-08-19T11:16:00.436Z,27
2018-08-19T11:17:00.362Z,26.9
2018-08-19T11:18:00.275Z,27.1
2018-08-19T11:19:00.226Z,27.2
2018-08-19T11:20:01.138Z,27
2018-08-19T11:21:01.416Z,27.1
2018-08-19T11:22:01.613Z,27.1
2018-08-19T11:23:01.777Z,27.1
2018-08-19T11:24:02.143Z,27.2
2018-08-19T11:25:02.094Z,27.3
2018-08-19T11:26:02.068Z,27.1
2018-08-19T11:27:01.971Z,27.2
2018-08-19T11:28:01.899Z,27.3
2018-08-19T11:29:01.817Z,27.4
2018-08-19T11:30:01.766Z,27.4
2018-08-19T11:31:02.692Z,27.3
2018-08-19T11:32:02.845Z,27.2
2018-08-19T11:33:02.751Z,27.1
2018-08-19T11:34:06.545Z,27.1
2018-08-19T11:35:07.135Z,26.9
2018-08-19T11:36:07.148Z,27.1
2018-08-19T11:37:07.122Z,27.1
2018-08-19T11:38:07.056Z,27.1
2018-08-19T11:39:09.721Z,27.2
2018-08-19T11:40:09.650Z,27.2
2018-08-19T11:41:11.607Z,27.3
2018-08-19T11:42:11.630Z,27.3
2018-08-19T11:43:11.597Z,27.2
2018-08-19T11:44:24.179Z,26.7
2018-08-19T11:45:24.104Z,26.6
2018-08-19T11:46:24.051Z,26.7
2018-08-19T11:47:24.970Z,26.9
2018-08-19T11:48:28.777Z,26.9
2018-08-19T11:49:28.868Z,27.1
2018-08-19T11:50:28.779Z,27.1
2018-08-19T11:51:28.723Z,27.1
2018-08-19T11:52:28.868Z,27
2018-08-19T11:53:29.919Z,26.9
2018-08-19T11:54:30.453Z,27.1
2018-08-19T11:55:30.399Z,27.1
2018-08-19T11:56:30.348Z,26.9
2018-08-19T11:57:32.814Z,26.7
2018-08-19T11:58:33.732Z,26.7
2018-08-19T11:59:33.855Z,26.7
2018-08-19T12:00:33.936Z,26.7
2018-08-19T12:01:37.170Z,26.8
2018-08-19T12:02:37.102Z,26.9
2018-08-19T12:03:37.027Z,27
2018-08-19T12:04:37.449Z,27
2018-08-19T12:05:37.365Z,27.1
2018-08-19T12:06:37.294Z,27.1
2018-08-19T12:07:37.247Z,27
2018-08-19T12:08:37.157Z,26.9
2018-08-19T12:09:37.181Z,26.6
2018-08-19T12:10:37.427Z,26.6
2018-08-19T12:11:38.349Z,26.7
2018-08-19T12:12:38.345Z,26.8
2018-08-19T12:13:40.972Z,26.8
2018-08-19T12:14:42.377Z,26.9
2018-08-19T12:15:42.287Z,27
2018-08-19T12:16:42.208Z,27.1
2018-08-19T12:17:42.191Z,27.1
2018-08-19T12:18:42.134Z,27.2
2018-08-19T12:19:42.267Z,27.1
2018-08-19T12:20:42.204Z,27
2018-08-19T12:21:42.128Z,26.9
2018-08-19T12:22:42.066Z,26.9
2018-08-19T12:23:41.988Z,27
2018-08-19T12:24:45.097Z,26.9
2018-08-19T12:25:45.010Z,26.9
2018-08-19T12:26:44.922Z,26.8
2018-08-19T12:27:45.270Z,26.7
2018-08-19T12:28:45.522Z,26.8
2018-08-19T12:29:45.466Z,26.9
2018-08-19T12:30:45.606Z,26.9
2018-08-19T12:31:45.531Z,26.7
2018-08-19T12:32:45.471Z,26.8
2018-08-19T12:33:45.440Z,26.9
2018-08-19T12:34:45.772Z,26.8
2018-08-19T12:35:46.905Z,26.7
2018-08-19T12:36:46.817Z,26.5
2018-08-19T12:37:46.735Z,26.6
2018-08-19T12:38:46.649Z,26.4
2018-08-19T12:39:46.555Z,26.4
2018-08-19T12:40:46.473Z,26.5
2018-08-19T12:41:46.402Z,26.5
2018-08-19T12:42:46.307Z,26.6
2018-08-19T12:43:50.340Z,26.5
2018-08-19T12:44:52.074Z,26.6
2018-08-19T12:45:53.429Z,26.8
2018-08-19T12:46:53.340Z,26.7
2018-08-19T12:47:54.268Z,26.7
2018-08-19T12:48:54.254Z,26.8
2018-08-19T12:49:55.397Z,26.8
2018-08-19T12:50:55.320Z,26.8
2018-08-19T12:51:55.230Z,26.8
2018-08-19T12:52:56.188Z,26.9
2018-08-19T12:53:56.116Z,26.8
2018-08-19T12:54:57.484Z,26.7
2018-08-19T12:55:57.783Z,26.6
2018-08-19T12:56:58.624Z,26.6
2018-08-19T12:57:58.530Z,26.6
2018-08-19T12:58:58.741Z,26.7
2018-08-19T13:00:00.645Z,26.7
2018-08-19T13:01:00.563Z,26.6
2018-08-19T13:02:00.701Z,26.5
2018-08-19T13:03:03.197Z,26.7
2018-08-19T13:04:03.590Z,26.7
2018-08-19T13:05:06.737Z,26.8
2018-08-19T13:06:09.396Z,26.7
2018-08-19T13:07:09.301Z,26.6
2018-08-19T13:08:09.739Z,26.8
2018-08-19T13:09:10.380Z,26.9
2018-08-19T13:10:10.296Z,27
2018-08-19T13:11:10.209Z,27.1
2018-08-19T13:12:10.127Z,27.1
2018-08-19T13:13:11.066Z,27.1
2018-08-19T13:14:11.035Z,27.1
2018-08-19T13:15:11.357Z,27.1
2018-08-19T13:16:11.299Z,27.1
2018-08-19T13:17:11.421Z,27.1
2018-08-19T13:18:11.347Z,26.9
2018-08-19T13:19:11.271Z,26.8
2018-08-19T13:20:11.221Z,26.8
2018-08-19T13:21:11.141Z,26.8
2018-08-19T13:22:11.097Z,26.8
2018-08-19T13:23:12.088Z,26.8
2018-08-19T13:24:12.370Z,26.6
2018-08-19T13:25:12.963Z,26.6
2018-08-19T13:26:12.877Z,26.7
2018-08-19T13:27:13.097Z,26.7
2018-08-19T13:28:13.056Z,26.7
2018-08-19T13:29:13.991Z,26.6
2018-08-19T13:30:13.926Z,26.6
2018-08-19T13:31:13.831Z,26.6
2018-08-19T13:32:13.759Z,26.6
2018-08-19T13:33:13.939Z,26.7
2018-08-19T13:34:13.844Z,26.8